createdAt,value
2023-02-23T00:02:07.451Z,-13.50
2023-02-23T00:04:42.183Z,-13.50
2023-02-23T00:07:10.571Z,-13.60
2023-02-23T00:09:40.423Z,-13.60
2023-02-23T00:12:08.397Z,-13.70
2023-02-23T00:14:37.965Z,-13.80
2023-02-23T00:17:14.391Z,-13.90
2023-02-23T00:19:44.028Z,-14.00
2023-02-23T00:22:12.095Z,-14.00
2023-02-23T00:24:42.428Z,-14.10
2023-02-23T00:34:37.266Z,-15.30
2023-02-23T00:37:05.200Z,-14.10
2023-02-23T00:42:03.485Z,-12.00
2023-02-23T01:01:47.290Z,-14.20
2023-02-23T01:04:15.068Z,-15.60
2023-02-23T01:11:46.993Z,-14.30
2023-02-23T01:16:43.806Z,-15.50
2023-02-23T01:21:42.296Z,-14.40
2023-02-23T01:26:41.806Z,-14.50
2023-02-23T01:29:15.014Z,-14.30
2023-02-23T01:31:51.417Z,-14.30
2023-02-23T01:34:21.839Z,-14.30
2023-02-23T01:39:20.179Z,-15.50
2023-02-23T01:41:51.949Z,-14.30
2023-02-23T01:49:22.853Z,-14.30
2023-02-23T01:52:11.537Z,-14.30
2023-02-23T01:54:42.887Z,-14.30
2023-02-23T01:57:14.578Z,-14.30
2023-02-23T01:59:47.030Z,-14.30
2023-02-23T02:02:18.075Z,-14.30
2023-02-23T02:04:48.797Z,-14.30
2023-02-23T02:10:07.943Z,-14.30
2023-02-23T02:12:41.930Z,-14.30
2023-02-23T02:18:03.522Z,-14.30
2023-02-23T02:20:52.618Z,-14.30
2023-02-23T02:23:42.252Z,-14.30
2023-02-23T02:26:42.039Z,-14.20
2023-02-23T02:29:33.165Z,-14.20
2023-02-23T02:32:16.688Z,-14.10
2023-02-23T02:35:19.733Z,-14.20
2023-02-23T02:40:53.685Z,-14.20
2023-02-23T02:43:43.764Z,-15.60
2023-02-23T02:46:36.967Z,-14.30
2023-02-23T02:49:26.942Z,-13.30
2023-02-23T02:52:26.595Z,-14.30
2023-02-23T02:54:57.731Z,-14.40
2023-02-23T02:57:27.976Z,-14.50
2023-02-23T03:00:13.557Z,-14.50
2023-02-23T03:03:00.434Z,-16.10
2023-02-23T03:06:04.230Z,-14.60
2023-02-23T03:09:10.807Z,-15.20
2023-02-23T03:12:07.749Z,-14.60
2023-02-23T03:14:59.747Z,-14.70
2023-02-23T03:18:02.303Z,-14.70
2023-02-23T03:23:46.542Z,-14.70
2023-02-23T03:26:55.357Z,-14.70
2023-02-23T03:30:04.327Z,-14.80
2023-02-23T03:32:52.891Z,-14.80
2023-02-23T03:36:08.450Z,-14.90
2023-02-23T03:39:17.130Z,-15.80
2023-02-23T03:42:05.189Z,-15.00
2023-02-23T03:44:56.547Z,-14.90
2023-02-23T03:47:46.433Z,-15.00
2023-02-23T03:50:48.433Z,-15.00
2023-02-23T03:53:36.971Z,-15.00
2023-02-23T03:56:24.520Z,-14.80
2023-02-23T03:59:16.260Z,-14.80
2023-02-23T04:02:02.690Z,-14.80
2023-02-23T04:07:37.299Z,-14.70
2023-02-23T04:10:25.065Z,-14.70
2023-02-23T04:16:01.388Z,-14.70
2023-02-23T04:18:34.257Z,-14.60
2023-02-23T04:25:58.924Z,-14.70
2023-02-23T04:28:28.196Z,-14.60
2023-02-23T04:33:25.701Z,-14.70
2023-02-23T04:38:22.599Z,-14.70
2023-02-23T04:43:18.137Z,-14.80
2023-02-23T04:45:48.810Z,-14.80
2023-02-23T04:53:12.357Z,-14.60
2023-02-23T04:58:13.716Z,-14.60
2023-02-23T05:00:41.835Z,-14.40
2023-02-23T05:03:09.473Z,-14.30
2023-02-23T05:05:37.066Z,-14.40
2023-02-23T05:08:04.924Z,-14.30
2023-02-23T05:13:01.205Z,-14.40
2023-02-23T05:15:31.605Z,-14.40
2023-02-23T05:18:00.173Z,-14.40
2023-02-23T05:20:27.818Z,-14.50
2023-02-23T05:27:51.074Z,-13.50
2023-02-23T05:30:18.871Z,-13.90
2023-02-23T05:32:46.470Z,-14.30
2023-02-23T05:37:41.873Z,-14.20
2023-02-23T05:40:10.196Z,-14.60
2023-02-23T05:42:38.587Z,-13.10
2023-02-23T05:47:38.664Z,-14.20
2023-02-23T05:50:07.975Z,-12.50
2023-02-23T05:52:40.744Z,-13.90
2023-02-23T05:55:11.636Z,-14.20
2023-02-23T05:57:41.190Z,-13.00
2023-02-23T06:10:01.466Z,-14.00
2023-02-23T06:17:27.482Z,-13.70
2023-02-23T06:29:50.520Z,-9.10
2023-02-23T06:42:09.896Z,-7.60
2023-02-23T06:49:33.995Z,-6.30
2023-02-23T06:59:26.821Z,-4.70
2023-02-23T07:14:26.204Z,-2.20
2023-02-23T07:16:54.848Z,-0.10
2023-02-23T07:19:25.067Z,-1.80
2023-02-23T07:21:52.558Z,-0.60
2023-02-23T07:24:20.262Z,-1.30
2023-02-23T07:26:49.501Z,-1.40
2023-02-23T07:29:17.515Z,-1.30
2023-02-23T07:31:44.977Z,0.00
2023-02-23T07:34:12.886Z,-0.80
2023-02-23T07:36:40.672Z,-0.70
2023-02-23T07:39:08.422Z,-0.10
2023-02-23T07:46:34.613Z,1.30
2023-02-23T07:49:03.009Z,-0.10
2023-02-23T07:51:30.649Z,0.10
2023-02-23T07:54:03.492Z,0.40
2023-02-23T08:06:28.884Z,2.70
2023-02-23T08:09:02.463Z,2.30
2023-02-23T08:11:30.328Z,2.30
2023-02-23T08:14:00.281Z,2.70
2023-02-23T08:16:28.997Z,3.00
2023-02-23T08:29:03.100Z,3.90
2023-02-23T08:31:31.120Z,3.80
2023-02-23T08:33:59.706Z,3.70
2023-02-23T08:41:23.068Z,4.80
2023-02-23T08:43:51.035Z,3.00
2023-02-23T08:46:20.618Z,3.50
2023-02-23T08:56:13.480Z,4.10
2023-02-23T08:58:41.217Z,3.50
2023-02-23T09:01:08.934Z,3.50
2023-02-23T09:03:39.225Z,2.10
2023-02-23T09:08:38.921Z,1.50
2023-02-23T09:11:06.714Z,0.60
2023-02-23T09:18:32.755Z,-0.30
2023-02-23T09:21:07.541Z,-0.60
2023-02-23T09:23:37.570Z,-0.90
2023-02-23T09:26:07.195Z,-0.70
2023-02-23T09:31:10.671Z,-1.00
2023-02-23T09:36:20.390Z,-1.30
2023-02-23T09:38:53.298Z,-1.30
2023-02-23T09:41:28.289Z,-1.10
2023-02-23T09:44:23.059Z,-1.80
2023-02-23T09:47:23.487Z,-1.80
2023-02-23T09:49:52.670Z,-2.30
2023-02-23T09:55:20.422Z,-1.90
2023-02-23T09:57:50.152Z,-2.40
2023-02-23T10:00:34.235Z,-2.60
2023-02-23T10:03:06.683Z,-2.70
2023-02-23T10:05:41.393Z,-2.60
2023-02-23T10:11:13.782Z,-2.70
2023-02-23T10:14:10.757Z,-3.10
2023-02-23T10:17:07.877Z,-2.90
2023-02-23T10:20:12.104Z,-3.00
2023-02-23T10:22:42.021Z,-2.90
2023-02-23T10:40:28.988Z,-3.30
2023-02-23T10:42:59.273Z,-3.00
2023-02-23T10:45:28.651Z,-1.50
2023-02-23T10:48:09.641Z,-3.10
2023-02-23T10:50:39.475Z,-2.90
2023-02-23T10:55:48.096Z,-2.80
2023-02-23T10:58:20.952Z,-2.50
2023-02-23T11:01:04.130Z,-1.70
2023-02-23T11:03:50.037Z,-1.00
2023-02-23T11:09:45.685Z,-1.20
2023-02-23T11:12:54.668Z,-1.10
2023-02-23T11:18:25.396Z,-0.70
2023-02-23T11:23:39.182Z,-0.40
2023-02-23T11:26:44.064Z,-0.20
2023-02-23T11:31:56.148Z,-1.30
2023-02-23T11:39:38.903Z,-1.40
2023-02-23T11:42:17.597Z,-1.50
2023-02-23T11:45:03.442Z,-1.70
2023-02-23T11:55:06.597Z,-1.80
2023-02-23T11:57:36.824Z,-1.80
2023-02-23T12:00:36.479Z,-2.30
2023-02-23T12:10:45.346Z,-2.50
2023-02-23T12:13:33.970Z,-2.50
2023-02-23T12:16:20.419Z,-2.50
2023-02-23T12:22:04.654Z,-2.90
2023-02-23T12:35:13.264Z,-2.80
2023-02-23T12:37:47.408Z,-2.60
2023-02-23T12:40:25.289Z,-2.60
2023-02-23T12:42:58.965Z,-2.70
2023-02-23T12:45:59.818Z,-2.50
2023-02-23T12:49:06.982Z,-2.50
2023-02-23T12:54:18.892Z,-2.70
2023-02-23T12:57:20.146Z,-2.50
2023-02-23T13:00:31.531Z,-2.40
2023-02-23T13:06:03.672Z,-2.40
2023-02-23T13:11:34.519Z,-1.80
2023-02-23T13:14:16.189Z,-2.40
2023-02-23T13:19:44.976Z,-2.40
2023-02-23T13:22:42.639Z,-2.50
2023-02-23T13:25:29.483Z,-2.50
2023-02-23T13:28:06.059Z,-2.50
2023-02-23T13:33:27.486Z,-2.60
2023-02-23T13:38:59.898Z,-2.60
2023-02-23T13:42:22.788Z,-2.90
2023-02-23T13:47:45.691Z,-0.90
2023-02-23T13:50:50.895Z,-2.80
2023-02-23T13:56:16.278Z,-3.00
2023-02-23T13:59:09.609Z,-3.00
2023-02-23T14:01:40.712Z,-3.00
2023-02-23T14:09:27.019Z,-3.10
2023-02-23T14:12:05.933Z,-3.10
2023-02-23T14:14:45.868Z,-3.10
2023-02-23T14:20:29.678Z,-3.10
2023-02-23T14:23:21.465Z,-3.10
2023-02-23T14:39:00.953Z,-3.10
2023-02-23T14:44:36.988Z,-2.90
2023-02-23T14:52:26.268Z,-3.20
2023-02-23T14:57:40.243Z,-3.20
2023-02-23T15:00:24.803Z,-3.30
2023-02-23T15:05:41.597Z,-3.20
2023-02-23T15:08:15.528Z,-3.20
2023-02-23T15:10:45.671Z,-3.20
2023-02-23T15:13:33.215Z,-3.20
2023-02-23T15:16:10.637Z,-3.30
2023-02-23T15:21:20.041Z,-3.20
2023-02-23T15:23:51.631Z,-3.20
2023-02-23T15:38:53.321Z,-3.30
2023-02-23T15:41:32.526Z,-3.20
2023-02-23T15:44:20.152Z,-3.20
2023-02-23T15:46:54.913Z,-3.20
2023-02-23T15:52:09.972Z,-3.20
2023-02-23T15:57:30.762Z,-3.30
2023-02-23T16:00:19.085Z,-3.30
2023-02-23T16:02:48.984Z,-3.30
2023-02-23T16:05:22.927Z,-3.30
2023-02-23T16:08:06.308Z,-3.30
2023-02-23T16:10:49.912Z,-3.30
2023-02-23T16:13:21.897Z,-3.30
2023-02-23T16:15:50.566Z,-3.30
2023-02-23T16:18:32.629Z,-3.30
2023-02-23T16:23:41.770Z,-3.20
2023-02-23T16:26:12.420Z,-3.30
2023-02-23T16:28:45.781Z,-3.20
2023-02-23T16:31:14.551Z,-3.20
2023-02-23T16:33:52.114Z,-3.20
2023-02-23T16:39:02.452Z,-3.20
2023-02-23T16:41:32.207Z,-3.20
2023-02-23T16:44:05.624Z,-3.20
2023-02-23T16:46:50.716Z,-3.10
2023-02-23T16:49:18.399Z,-3.10
2023-02-23T16:51:46.758Z,-3.20
2023-02-23T16:54:14.317Z,-3.20
2023-02-23T16:56:42.266Z,-2.90
2023-02-23T16:59:16.360Z,-3.10
2023-02-23T17:01:46.657Z,-3.10
2023-02-23T17:04:15.453Z,-3.10
2023-02-23T17:06:43.897Z,-1.30
2023-02-23T17:09:12.807Z,-3.60
2023-02-23T17:11:42.445Z,-3.10
2023-02-23T17:14:27.697Z,-3.10
2023-02-23T17:16:55.896Z,-1.30
2023-02-23T17:21:53.670Z,-3.10
2023-02-23T17:24:25.995Z,-3.20
2023-02-23T17:31:51.161Z,-3.00
2023-02-23T17:39:17.159Z,-3.10
2023-02-23T17:51:37.347Z,-3.00
2023-02-23T17:54:05.022Z,-3.00
2023-02-23T18:01:28.721Z,-3.00
2023-02-23T18:03:58.668Z,-3.00
2023-02-23T18:08:55.380Z,-3.00
2023-02-23T18:11:23.822Z,-3.00
2023-02-23T18:13:51.505Z,-3.00
2023-02-23T18:16:19.524Z,-3.00
2023-02-23T18:18:49.103Z,-2.90
2023-02-23T18:23:47.670Z,-2.90
2023-02-23T18:26:19.422Z,-2.90
2023-02-23T18:31:17.988Z,-2.90
2023-02-23T18:36:20.997Z,-2.90
2023-02-23T18:38:49.353Z,-4.60
2023-02-23T18:43:44.680Z,-2.90
2023-02-23T18:51:14.183Z,-2.90
2023-02-23T18:53:42.318Z,-2.80
2023-02-23T18:56:14.276Z,-2.80
2023-02-23T18:58:44.723Z,-2.80
2023-02-23T19:01:18.191Z,-2.80
2023-02-23T19:03:46.792Z,-2.80
2023-02-23T19:06:16.197Z,-2.80
2023-02-23T19:08:44.767Z,-2.80
2023-02-23T19:11:13.057Z,-2.80
2023-02-23T19:13:40.608Z,-1.50
2023-02-23T19:16:08.745Z,-3.80
2023-02-23T19:21:07.045Z,-2.70
2023-02-23T19:26:03.451Z,-2.70
2023-02-23T19:31:10.894Z,-2.80
2023-02-23T19:36:08.943Z,-2.70
2023-02-23T19:41:13.619Z,-4.00
2023-02-23T19:43:41.317Z,-2.60
2023-02-23T19:46:11.389Z,-2.60
2023-02-23T19:48:39.098Z,-2.60
2023-02-23T19:51:10.263Z,-2.60
2023-02-23T19:53:37.992Z,-2.60
2023-02-23T19:56:08.705Z,-2.60
2023-02-23T19:58:36.407Z,-2.60
2023-02-23T20:01:08.973Z,-2.60
2023-02-23T20:06:13.440Z,-2.60
2023-02-23T20:11:09.009Z,-2.60
2023-02-23T20:13:38.634Z,-2.60
2023-02-23T20:16:09.167Z,-1.20
2023-02-23T20:18:41.425Z,-2.60
2023-02-23T20:21:10.399Z,-2.60
2023-02-23T20:23:38.046Z,-2.60
2023-02-23T20:26:08.231Z,-2.60
2023-02-23T20:28:35.728Z,-2.60
2023-02-23T20:31:03.839Z,-1.60
2023-02-23T20:38:27.523Z,-2.60
2023-02-23T20:40:55.034Z,-2.60
2023-02-23T20:43:22.650Z,-2.60
2023-02-23T20:45:50.496Z,-2.60
2023-02-23T20:48:17.925Z,-2.60
2023-02-23T20:58:08.529Z,-2.60
2023-02-23T21:05:40.335Z,-2.60
2023-02-23T21:10:38.400Z,-2.60
2023-02-23T21:13:07.394Z,-2.60
2023-02-23T21:20:32.907Z,-2.60
2023-02-23T21:23:00.506Z,-2.60
2023-02-23T21:25:29.176Z,-2.60
2023-02-23T21:27:56.788Z,-2.60
2023-02-23T21:30:28.531Z,-2.50
2023-02-23T21:32:56.767Z,-2.60
2023-02-23T21:35:24.769Z,-2.50
2023-02-23T21:37:53.392Z,-2.50
2023-02-23T21:40:23.353Z,-2.50
2023-02-23T21:42:51.383Z,-2.50
2023-02-23T21:45:19.481Z,-1.60
2023-02-23T21:52:48.579Z,-2.40
2023-02-23T21:55:24.662Z,-2.40
2023-02-23T21:57:52.405Z,-1.40
2023-02-23T22:00:21.861Z,-2.40
2023-02-23T22:07:54.103Z,-2.30
2023-02-23T22:10:23.898Z,-2.30
2023-02-23T22:12:56.323Z,-2.30
2023-02-23T22:15:27.230Z,-2.30
2023-02-23T22:17:56.209Z,-2.20
2023-02-23T22:20:23.625Z,-2.20
2023-02-23T22:22:51.104Z,-1.90
2023-02-23T22:25:20.281Z,-2.20
2023-02-23T22:27:48.210Z,-2.10
2023-02-23T22:30:16.103Z,-3.40
2023-02-23T22:35:11.973Z,-2.00
2023-02-23T22:37:41.093Z,-2.00
2023-02-23T22:45:16.596Z,-1.90
2023-02-23T22:47:44.615Z,-1.90
2023-02-23T22:50:14.139Z,-1.90
2023-02-23T22:52:43.147Z,-1.80
2023-02-23T22:55:11.191Z,-1.80
2023-02-23T22:57:39.915Z,-1.80
2023-02-23T23:00:12.652Z,-1.80
2023-02-23T23:05:08.949Z,-1.80
2023-02-23T23:10:05.879Z,-1.50
2023-02-23T23:12:34.570Z,-1.70
2023-02-23T23:15:03.234Z,-1.70
2023-02-23T23:17:32.361Z,-1.70
2023-02-23T23:20:00.658Z,-1.80
2023-02-23T23:22:28.924Z,-1.70
2023-02-23T23:27:24.912Z,-1.60
2023-02-23T23:29:52.578Z,-1.60
2023-02-23T23:32:27.507Z,-1.90
2023-02-23T23:37:29.236Z,-1.60
2023-02-23T23:40:00.081Z,-1.60
2023-02-23T23:42:27.674Z,-1.50
2023-02-23T23:44:57.067Z,-1.50
2023-02-23T23:47:24.751Z,-1.50
2023-02-23T23:49:54.535Z,-1.50
2023-02-23T23:54:49.677Z,-1.50
2023-02-23T23:57:17.454Z,-1.50
2023-02-23T23:59:46.335Z,-1.50
